Time;durP1;ratioP1;P1;durP2;ratioP2;P2;SDS_P1;SDS_P2;PMS_P1;PMS_P2;Temp;Humidity;BMP_temperature;BMP_pressure;BME280_temperature;BME280_humidity;BME280_pressure;Samples;Min_cycle;Max_cycle;Signal;HPM_P1;HPM_P2
2022/04/16 00:00:23;;;;;;;27.77;18.38;;;7.40;99.90;;;;;;5027133;28;20052;-81
2022/04/16 00:02:48;;;;;;;26.38;17.58;;;7.40;99.90;;;;;;4994312;28;20045;-85
2022/04/16 00:05:15;;;;;;;30.35;19.08;;;7.40;99.90;;;;;;5012248;28;20116;-80
2022/04/16 00:07:41;;;;;;;30.83;20.45;;;7.40;99.90;;;;;;5011593;28;20046;-81
2022/04/16 00:10:08;;;;;;;30.52;20.98;;;7.30;99.90;;;;;;5023638;28;20061;-81
2022/04/16 00:12:34;;;;;;;35.17;20.52;;;7.30;99.90;;;;;;5045329;28;20088;-80
2022/04/16 00:15:01;;;;;;;29.42;20.05;;;7.10;99.90;;;;;;5011549;28;20056;-84
2022/04/16 00:17:26;;;;;;;30.42;20.85;;;7.00;99.90;;;;;;5015798;28;20135;-80
2022/04/16 00:19:52;;;;;;;30.58;20.83;;;6.90;99.90;;;;;;4997904;28;20128;-81
2022/04/16 00:22:18;;;;;;;32.22;20.70;;;6.80;99.90;;;;;;5027961;28;20045;-80
2022/04/16 00:24:46;;;;;;;30.95;20.23;;;6.70;99.90;;;;;;5014806;28;20036;-80
2022/04/16 00:27:12;;;;;;;33.42;20.52;;;6.70;99.90;;;;;;5031771;28;20048;-80
2022/04/16 00:29:38;;;;;;;34.13;21.40;;;6.60;99.90;;;;;;5005987;28;20048;-81
2022/04/16 00:32:08;;;;;;;31.65;20.52;;;6.50;99.90;;;;;;5039502;28;20075;-80
2022/04/16 00:34:34;;;;;;;33.80;21.70;;;6.40;99.90;;;;;;5015020;28;20098;-80
2022/04/16 00:37:00;;;;;;;31.85;20.70;;;6.30;99.90;;;;;;5030317;28;20072;-81
2022/04/16 00:39:26;;;;;;;32.70;20.48;;;6.20;99.90;;;;;;5010082;28;20069;-81
2022/04/16 00:41:52;;;;;;;30.20;20.08;;;6.20;99.90;;;;;;5011818;28;20499;-83
2022/04/16 00:44:21;;;;;;;32.58;20.50;;;6.10;99.90;;;;;;5028659;28;20470;-81
2022/04/16 00:46:47;;;;;;;33.15;20.80;;;6.20;99.90;;;;;;5014831;28;20049;-80
2022/04/16 00:49:13;;;;;;;38.28;21.05;;;6.10;99.90;;;;;;4995018;28;20076;-81
2022/04/16 00:51:43;;;;;;;31.95;21.13;;;6.10;99.90;;;;;;5013009;28;20072;-80
2022/04/16 00:54:09;;;;;;;33.92;21.15;;;6.00;99.90;;;;;;5013835;28;20053;-81
2022/04/16 00:56:36;;;;;;;32.45;21.30;;;6.00;99.90;;;;;;5025423;28;20136;-81
2022/04/16 00:59:04;;;;;;;32.17;21.20;;;6.00;99.90;;;;;;4989938;28;20060;-80
2022/04/16 01:01:30;;;;;;;33.78;20.58;;;5.90;99.90;;;;;;5030334;28;20049;-81
2022/04/16 01:03:56;;;;;;;32.78;22.67;;;5.90;99.90;;;;;;5013412;28;20140;-82
2022/04/16 01:06:22;;;;;;;34.25;21.15;;;5.80;99.90;;;;;;4998646;28;20115;-80
2022/04/16 01:08:48;;;;;;;34.67;20.95;;;5.80;99.90;;;;;;5003172;28;20102;-80
2022/04/16 01:11:14;;;;;;;33.47;21.50;;;5.80;99.90;;;;;;4997377;28;20115;-79
2022/04/16 01:13:41;;;;;;;35.15;22.27;;;5.70;99.90;;;;;;5018461;28;20045;-82
2022/04/16 01:16:07;;;;;;;34.92;22.73;;;5.60;99.90;;;;;;5019727;28;20088;-80
2022/04/16 01:18:33;;;;;;;35.45;21.85;;;5.60;99.90;;;;;;4989652;28;20526;-80
2022/04/16 01:21:02;;;;;;;37.60;22.92;;;5.50;99.90;;;;;;5018445;28;20033;-80
2022/04/16 01:23:28;;;;;;;34.25;22.20;;;5.60;99.90;;;;;;5018799;28;20127;-80
2022/04/16 01:25:55;;;;;;;36.80;21.95;;;5.50;99.90;;;;;;5033470;28;20036;-84
2022/04/16 01:28:21;;;;;;;40.03;23.45;;;5.50;99.90;;;;;;5004751;28;20103;-80
2022/04/16 01:30:47;;;;;;;40.08;22.70;;;5.50;99.90;;;;;;5005290;28;20040;-80
2022/04/16 01:33:13;;;;;;;36.28;22.70;;;5.50;99.90;;;;;;4984512;28;20048;-81
2022/04/16 01:35:39;;;;;;;38.92;23.27;;;5.40;99.90;;;;;;5001618;28;20048;-80
2022/04/16 01:38:06;;;;;;;39.35;23.63;;;5.40;99.90;;;;;;5001353;28;20037;-80
2022/04/16 01:40:32;;;;;;;39.88;24.88;;;5.40;99.90;;;;;;5025533;28;20037;-80
2022/04/16 01:42:58;;;;;;;46.45;25.90;;;5.40;99.90;;;;;;5020686;28;20052;-85
2022/04/16 01:45:24;;;;;;;39.67;24.08;;;5.50;99.90;;;;;;5036687;28;20111;-80
2022/04/16 01:47:50;;;;;;;42.45;24.50;;;5.30;99.90;;;;;;5037396;28;20473;-81
2022/04/16 01:50:16;;;;;;;38.83;23.77;;;5.30;99.90;;;;;;5020132;28;20249;-80
2022/04/16 01:52:42;;;;;;;41.90;24.83;;;5.30;99.90;;;;;;4984988;28;20117;-81
2022/04/16 01:55:09;;;;;;;44.47;23.77;;;5.20;99.90;;;;;;5024162;28;20102;-80
2022/04/16 01:57:36;;;;;;;42.00;26.08;;;5.10;99.90;;;;;;4998546;28;20137;-81
2022/04/16 02:00:03;;;;;;;40.63;23.98;;;5.00;99.90;;;;;;5035191;28;20048;-81
2022/04/16 02:02:29;;;;;;;44.53;25.23;;;4.90;99.90;;;;;;4985509;28;20037;-80
2022/04/16 02:04:55;;;;;;;41.97;24.58;;;4.80;99.90;;;;;;5020454;28;20098;-80
2022/04/16 02:07:20;;;;;;;41.08;24.85;;;4.70;99.90;;;;;;5034699;28;20040;-81
2022/04/16 02:09:46;;;;;;;49.85;26.25;;;4.70;99.90;;;;;;5020135;28;20044;-80
2022/04/16 02:12:13;;;;;;;50.20;26.10;;;4.60;99.90;;;;;;5020612;28;20462;-79
2022/04/16 02:14:38;;;;;;;47.40;25.75;;;4.70;99.90;;;;;;5004353;28;20045;-80
2022/04/16 02:17:04;;;;;;;52.88;26.42;;;4.70;99.90;;;;;;5035859;28;20059;-80
2022/04/16 02:19:32;;;;;;;50.10;25.80;;;4.70;99.90;;;;;;5020452;28;20041;-81
2022/04/16 02:21:58;;;;;;;42.10;24.85;;;4.60;99.90;;;;;;5021465;28;20055;-84
2022/04/16 02:24:24;;;;;;;49.97;25.50;;;4.60;99.90;;;;;;5016741;28;20037;-80
2022/04/16 02:26:50;;;;;;;39.97;23.67;;;4.50;99.90;;;;;;4998429;28;20045;-81
2022/04/16 02:29:16;;;;;;;43.45;24.17;;;4.40;99.90;;;;;;5011550;28;20134;-83
2022/04/16 02:31:44;;;;;;;42.35;25.38;;;4.30;99.90;;;;;;5015335;28;20048;-81
2022/04/16 02:34:11;;;;;;;48.13;26.67;;;4.40;99.90;;;;;;5013345;28;20403;-80
2022/04/16 02:36:37;;;;;;;44.78;24.85;;;4.40;99.90;;;;;;4998023;28;20068;-81
2022/04/16 02:39:03;;;;;;;52.67;26.98;;;4.60;99.90;;;;;;5031110;28;20037;-80
2022/04/16 02:41:29;;;;;;;48.55;27.75;;;4.80;99.90;;;;;;5001594;28;20162;-80
2022/04/16 02:43:55;;;;;;;50.30;27.05;;;5.00;99.90;;;;;;4991153;28;20077;-81
2022/04/16 02:49:09;;;;;;;56.10;28.95;;;5.40;99.90;;;;;;5034132;28;20079;-81
2022/04/16 02:51:36;;;;;;;50.88;27.90;;;5.60;99.90;;;;;;5015039;28;20509;-81
2022/04/16 02:54:01;;;;;;;54.80;28.48;;;5.60;99.90;;;;;;5030110;28;20426;-80
2022/04/16 02:56:27;;;;;;;48.17;27.23;;;5.70;99.90;;;;;;5030016;28;20033;-81
2022/04/16 02:58:53;;;;;;;59.28;29.58;;;5.80;99.90;;;;;;5013602;28;20038;-81
2022/04/16 03:01:18;;;;;;;51.33;28.30;;;5.90;99.90;;;;;;5011384;28;20530;-80
2022/04/16 03:03:44;;;;;;;45.90;26.60;;;6.00;99.90;;;;;;5013024;28;20049;-81
2022/04/16 03:06:10;;;;;;;50.72;27.42;;;6.10;99.90;;;;;;5030180;28;20080;-81
2022/04/16 03:08:36;;;;;;;53.85;30.40;;;6.20;99.90;;;;;;4999154;28;20037;-82
2022/04/16 03:11:04;;;;;;;51.33;29.13;;;6.20;99.90;;;;;;4999583;28;20045;-84
2022/04/16 03:13:30;;;;;;;50.72;28.90;;;6.50;99.90;;;;;;5015743;28;20716;-81
2022/04/16 03:18:40;;;;;;;49.03;27.95;;;6.70;99.90;;;;;;5013528;28;20053;-82
2022/04/16 03:21:06;;;;;;;52.45;29.45;;;6.80;99.90;;;;;;5012488;28;20117;-82
2022/04/16 03:23:32;;;;;;;51.33;30.45;;;6.90;99.90;;;;;;5014071;28;20046;-81
2022/04/16 03:26:00;;;;;;;50.58;29.58;;;7.00;99.90;;;;;;5045255;28;20486;-80
2022/04/16 03:28:26;;;;;;;53.35;30.88;;;7.10;99.90;;;;;;5010356;28;20057;-81
2022/04/16 03:30:53;;;;;;;49.78;29.23;;;7.10;99.90;;;;;;5014971;28;20122;-83
2022/04/16 03:33:19;;;;;;;51.15;30.95;;;7.20;99.90;;;;;;4999038;28;20046;-80
2022/04/16 03:35:45;;;;;;;50.70;29.95;;;7.30;99.90;;;;;;4975132;28;20038;-80
2022/04/16 03:38:10;;;;;;;55.53;30.77;;;7.40;99.90;;;;;;5013116;28;20432;-81
2022/04/16 03:40:36;;;;;;;50.55;31.05;;;7.50;99.90;;;;;;5025553;28;20128;-84
2022/04/16 03:43:02;;;;;;;55.60;33.22;;;7.40;99.90;;;;;;5028904;28;20041;-81
2022/04/16 03:45:33;;;;;;;56.15;32.45;;;7.50;99.90;;;;;;5011638;28;20052;-81
2022/04/16 03:48:00;;;;;;;57.20;33.33;;;7.50;99.90;;;;;;4994470;28;20104;-80
2022/04/16 03:50:28;;;;;;;58.25;32.13;;;7.70;99.90;;;;;;5002758;28;20045;-82
2022/04/16 03:52:55;;;;;;;59.55;33.80;;;7.60;99.90;;;;;;5012785;28;20056;-81
2022/04/16 04:00:57;;;;;;;54.50;32.75;;;7.70;99.90;;;;;;5020853;28;20142;-81
2022/04/16 04:03:23;;;;;;;52.13;31.48;;;7.70;99.90;;;;;;5010640;28;20080;-80
2022/04/16 04:05:53;;;;;;;50.28;31.40;;;7.70;99.90;;;;;;5011737;28;20043;-81
2022/04/16 04:08:22;;;;;;;49.78;29.17;;;7.70;99.90;;;;;;4999545;28;20526;-80
2022/04/16 04:10:48;;;;;;;49.88;30.02;;;7.80;99.90;;;;;;5012299;28;20116;-81
2022/04/16 04:13:15;;;;;;;48.67;29.42;;;7.80;99.90;;;;;;5004605;28;20449;-80
2022/04/16 04:15:42;;;;;;;47.40;29.85;;;7.80;99.90;;;;;;4995964;28;20196;-81
2022/04/16 04:18:09;;;;;;;46.92;29.75;;;7.80;99.90;;;;;;5011372;28;20152;-82
2022/04/16 04:20:35;;;;;;;45.58;29.77;;;7.80;99.90;;;;;;4993345;28;20508;-83
2022/04/16 04:23:05;;;;;;;40.53;28.02;;;7.90;99.90;;;;;;4994801;28;20107;-81
2022/04/16 04:25:31;;;;;;;40.38;27.00;;;7.90;99.90;;;;;;5012457;28;20049;-81
2022/04/16 04:27:57;;;;;;;43.30;27.85;;;7.80;99.90;;;;;;5010335;28;20045;-81
2022/04/16 04:30:23;;;;;;;37.92;26.27;;;7.90;99.90;;;;;;5011415;28;20120;-81
2022/04/16 04:32:48;;;;;;;40.42;24.92;;;7.90;99.90;;;;;;5024809;28;20051;-80
2022/04/16 04:35:14;;;;;;;35.97;23.30;;;7.90;99.90;;;;;;5010745;28;20414;-80
2022/04/16 04:37:40;;;;;;;38.20;22.77;;;7.90;99.90;;;;;;4996679;28;20422;-86
2022/04/16 04:40:06;;;;;;;33.22;22.40;;;7.80;99.90;;;;;;5027660;28;20077;-81
2022/04/16 04:42:33;;;;;;;35.10;21.38;;;7.80;99.90;;;;;;5012150;28;20041;-83
2022/04/16 04:45:06;;;;;;;32.03;21.52;;;7.80;99.90;;;;;;5012610;28;20045;-81
2022/04/16 04:47:31;;;;;;;36.83;21.52;;;7.70;99.90;;;;;;5005857;28;20140;-81
2022/04/16 04:49:57;;;;;;;32.30;20.38;;;7.70;99.90;;;;;;5011296;28;20475;-81
2022/04/16 04:52:26;;;;;;;35.67;21.42;;;7.80;99.90;;;;;;5012090;28;20045;-80
2022/04/16 04:54:53;;;;;;;36.67;21.92;;;7.80;99.90;;;;;;5013138;28;20049;-83
2022/04/16 04:57:19;;;;;;;34.35;19.90;;;7.70;99.90;;;;;;4994897;28;20087;-80
2022/04/16 04:59:45;;;;;;;33.05;20.30;;;7.70;99.90;;;;;;5026018;28;20840;-81
2022/04/16 05:02:11;;;;;;;32.38;21.25;;;7.70;99.90;;;;;;5043928;28;20038;-85
2022/04/16 05:04:37;;;;;;;31.67;20.95;;;7.70;99.90;;;;;;5029532;28;20041;-82
2022/04/16 05:07:03;;;;;;;32.10;19.25;;;7.80;99.90;;;;;;5028607;28;20045;-81
2022/04/16 05:09:29;;;;;;;30.02;19.58;;;7.80;99.90;;;;;;5010729;28;20505;-80
2022/04/16 05:11:55;;;;;;;32.10;20.10;;;7.80;99.90;;;;;;5011238;28;20080;-82
2022/04/16 05:14:21;;;;;;;32.10;19.80;;;7.80;99.90;;;;;;5027540;28;20084;-80
2022/04/16 05:16:48;;;;;;;28.35;18.52;;;7.80;99.90;;;;;;5026648;28;20467;-80
2022/04/16 05:19:16;;;;;;;30.70;18.95;;;7.90;99.90;;;;;;5026410;28;20049;-85
2022/04/16 05:21:42;;;;;;;25.73;17.20;;;7.90;99.90;;;;;;5010794;28;20037;-81
2022/04/16 05:24:09;;;;;;;27.73;17.90;;;8.00;99.90;;;;;;5021107;28;20371;-82
2022/04/16 05:26:35;;;;;;;33.75;20.35;;;7.90;99.90;;;;;;5035167;28;20545;-80
2022/04/16 05:29:02;;;;;;;26.52;16.67;;;7.90;99.90;;;;;;5021227;28;20083;-81
2022/04/16 05:31:29;;;;;;;25.45;16.77;;;8.00;99.90;;;;;;5026733;28;20038;-81
2022/04/16 05:36:39;;;;;;;23.90;15.82;;;8.10;99.90;;;;;;5028613;28;20141;-81
2022/04/16 05:39:05;;;;;;;25.75;15.98;;;8.10;99.90;;;;;;5010838;28;20133;-84
2022/04/16 05:41:33;;;;;;;22.58;15.07;;;8.10;99.90;;;;;;5020403;28;20103;-81
2022/04/16 05:44:03;;;;;;;23.50;15.07;;;8.20;99.90;;;;;;4992856;28;20069;-81
2022/04/16 05:46:29;;;;;;;21.77;14.05;;;8.30;99.90;;;;;;5022721;28;20474;-81
2022/04/16 05:48:55;;;;;;;22.70;15.15;;;8.20;99.90;;;;;;5010737;28;20057;-82
2022/04/16 05:51:21;;;;;;;23.02;14.45;;;8.30;99.90;;;;;;5007969;28;20510;-84
2022/04/16 05:53:48;;;;;;;23.65;15.13;;;8.30;99.90;;;;;;5009294;28;20045;-81
2022/04/16 05:56:15;;;;;;;22.85;14.07;;;8.30;99.90;;;;;;4990903;28;20033;-80
2022/04/16 05:58:42;;;;;;;23.00;13.93;;;8.40;99.90;;;;;;5010474;28;20050;-81
2022/04/16 06:01:09;;;;;;;27.77;13.90;;;8.40;99.90;;;;;;5029435;28;20507;-81
2022/04/16 06:03:45;;;;;;;24.20;13.93;;;8.50;99.90;;;;;;4980303;28;20107;-82
2022/04/16 06:06:10;;;;;;;21.13;13.50;;;8.50;99.90;;;;;;5013969;28;20049;-80
2022/04/16 06:08:37;;;;;;;25.10;15.70;;;8.50;99.90;;;;;;5030372;28;20064;-81
2022/04/16 06:11:07;;;;;;;31.67;22.20;;;8.50;99.90;;;;;;5029274;28;20037;-81
2022/04/16 06:13:33;;;;;;;24.48;14.63;;;8.60;99.90;;;;;;5030256;28;20564;-80
2022/04/16 06:15:59;;;;;;;22.38;15.63;;;8.60;99.90;;;;;;5014395;28;20053;-81
2022/04/16 06:18:25;;;;;;;22.15;14.45;;;8.60;99.90;;;;;;5010601;28;20042;-82
2022/04/16 06:20:51;;;;;;;23.02;14.10;;;8.60;99.90;;;;;;5011381;28;20034;-81
2022/04/16 06:23:19;;;;;;;19.83;13.10;;;8.70;99.90;;;;;;5013243;28;20515;-83
2022/04/16 06:25:45;;;;;;;22.60;13.35;;;8.80;99.90;;;;;;5014060;28;20487;-81
2022/04/16 06:28:11;;;;;;;20.30;12.95;;;8.60;99.90;;;;;;5030010;28;20053;-81
2022/04/16 06:30:36;;;;;;;22.15;13.25;;;8.50;99.90;;;;;;4997865;28;20103;-81
2022/04/16 06:33:02;;;;;;;21.08;14.55;;;8.40;99.90;;;;;;5031327;28;20451;-81
2022/04/16 06:35:28;;;;;;;20.95;13.68;;;8.30;99.90;;;;;;4993007;28;20072;-80
2022/04/16 06:37:53;;;;;;;20.75;12.45;;;8.20;99.90;;;;;;4995245;28;20467;-80
2022/04/16 06:40:19;;;;;;;22.25;13.23;;;8.30;99.90;;;;;;4987707;28;20068;-82
2022/04/16 06:42:45;;;;;;;19.95;12.85;;;8.30;99.90;;;;;;5000963;28;20046;-82
2022/04/16 06:45:12;;;;;;;19.38;12.73;;;8.30;99.90;;;;;;5013810;28;20049;-81
2022/04/16 06:47:38;;;;;;;17.92;11.70;;;8.30;99.90;;;;;;5030709;28;20132;-81
2022/04/16 06:50:05;;;;;;;18.52;12.02;;;8.40;99.90;;;;;;5003098;28;20043;-81
2022/04/16 06:52:32;;;;;;;17.65;11.45;;;8.40;99.90;;;;;;5013847;28;20049;-81
2022/04/16 06:54:58;;;;;;;17.58;11.60;;;8.40;99.90;;;;;;5014300;28;20057;-82
2022/04/16 06:57:25;;;;;;;17.42;12.43;;;8.50;99.90;;;;;;5010823;28;20040;-83
2022/04/16 06:59:50;;;;;;;19.23;11.57;;;8.50;99.90;;;;;;5025102;28;20509;-83
2022/04/16 07:02:16;;;;;;;16.35;10.98;;;8.40;99.90;;;;;;4991463;28;20067;-83
2022/04/16 07:04:42;;;;;;;17.38;11.25;;;8.40;99.90;;;;;;5028603;28;20057;-82
2022/04/16 07:07:08;;;;;;;15.35;10.95;;;8.40;99.90;;;;;;4993484;28;20041;-81
2022/04/16 07:09:38;;;;;;;21.50;12.20;;;8.40;99.90;;;;;;5025635;28;20056;-82
2022/04/16 07:12:09;;;;;;;16.50;10.68;;;8.40;99.90;;;;;;5010440;28;20053;-83
2022/04/16 07:14:36;;;;;;;15.32;10.18;;;8.30;99.90;;;;;;5004381;28;20041;-85
2022/04/16 07:17:02;;;;;;;15.23;11.00;;;8.30;99.90;;;;;;5025605;28;20395;-82
2022/04/16 07:19:29;;;;;;;16.58;10.88;;;8.30;99.90;;;;;;5028848;28;20048;-81
2022/04/16 07:21:55;;;;;;;17.48;10.77;;;8.30;99.90;;;;;;5009155;28;20049;-83
2022/04/16 07:24:22;;;;;;;16.90;10.25;;;8.30;99.90;;;;;;5005594;28;20041;-84
2022/04/16 07:26:48;;;;;;;17.67;10.43;;;8.30;99.90;;;;;;4978532;28;20475;-81
2022/04/16 07:29:14;;;;;;;14.85;9.60;;;8.30;99.90;;;;;;4988893;28;20076;-81
2022/04/16 07:31:40;;;;;;;14.05;8.50;;;8.40;99.90;;;;;;4978482;28;20091;-81
2022/04/16 07:34:05;;;;;;;17.17;9.18;;;8.40;99.90;;;;;;4988446;28;20703;-82
2022/04/16 07:36:31;;;;;;;12.60;8.27;;;8.40;99.90;;;;;;4989911;28;20121;-81
2022/04/16 07:38:57;;;;;;;12.95;7.85;;;8.40;99.90;;;;;;5011038;28;20470;-82
2022/04/16 07:41:23;;;;;;;13.25;7.68;;;8.40;99.90;;;;;;5005935;28;20037;-86
2022/04/16 07:43:48;;;;;;;10.73;6.63;;;8.50;99.90;;;;;;5013543;28;20037;-82
2022/04/16 07:46:18;;;;;;;9.93;6.78;;;8.50;99.90;;;;;;4993776;28;20450;-81
2022/04/16 07:48:44;;;;;;;8.48;6.10;;;8.50;99.90;;;;;;5029303;28;20053;-81
2022/04/16 07:51:10;;;;;;;8.80;6.00;;;8.50;99.90;;;;;;4992324;28;20102;-81
2022/04/16 07:53:35;;;;;;;10.57;5.95;;;8.50;99.90;;;;;;5007328;28;20119;-83
2022/04/16 07:56:02;;;;;;;10.98;5.38;;;8.60;99.90;;;;;;5016513;28;20045;-83
2022/04/16 07:58:28;;;;;;;8.90;5.20;;;8.50;99.90;;;;;;5012743;28;20037;-83
2022/04/16 08:00:53;;;;;;;7.60;4.85;;;8.60;99.90;;;;;;5011021;28;20494;-83
2022/04/16 08:03:19;;;;;;;7.82;4.40;;;8.60;99.90;;;;;;5022983;28;20073;-84
2022/04/16 08:05:45;;;;;;;7.78;4.25;;;8.60;99.90;;;;;;5011325;28;20041;-81
2022/04/16 08:08:10;;;;;;;8.38;4.50;;;8.60;99.90;;;;;;5024630;28;20081;-82
2022/04/16 08:10:37;;;;;;;8.52;4.63;;;8.60;99.90;;;;;;5014397;28;20467;-80
2022/04/16 08:13:05;;;;;;;8.65;4.47;;;8.80;99.90;;;;;;5012728;28;20069;-80
2022/04/16 08:15:31;;;;;;;7.05;3.88;;;8.70;99.90;;;;;;5013022;28;20060;-80
2022/04/16 08:17:57;;;;;;;8.15;4.90;;;8.70;99.90;;;;;;5009531;28;20402;-80
2022/04/16 08:20:23;;;;;;;8.35;4.60;;;8.70;99.90;;;;;;4989161;28;20041;-80
2022/04/16 08:22:49;;;;;;;12.48;4.75;;;8.80;99.90;;;;;;5006604;28;20041;-81
2022/04/16 08:27:54;;;;;;;9.45;5.63;;;9.00;99.90;;;;;;5022565;28;20043;-83
2022/04/16 08:30:21;;;;;;;14.80;5.20;;;9.00;99.90;;;;;;5040319;28;20046;-79
2022/04/16 08:32:47;;;;;;;10.38;5.10;;;9.00;99.90;;;;;;5028027;28;20044;-81
2022/04/16 08:35:15;;;;;;;8.48;4.80;;;9.10;99.90;;;;;;4998820;28;20685;-81
2022/04/16 08:37:42;;;;;;;8.82;5.32;;;9.20;99.90;;;;;;5027323;28;20052;-78
2022/04/16 08:40:09;;;;;;;9.35;4.72;;;9.30;99.90;;;;;;5015568;28;20462;-78
2022/04/16 08:42:36;;;;;;;5.43;3.40;;;9.30;99.90;;;;;;5027177;28;20480;-78
2022/04/16 08:45:06;;;;;;;6.30;3.50;;;9.40;99.90;;;;;;5009183;28;20041;-82
2022/04/16 08:47:33;;;;;;;5.07;2.83;;;9.50;99.90;;;;;;4993258;28;20045;-79
2022/04/16 08:50:00;;;;;;;6.25;3.60;;;9.70;99.90;;;;;;5007140;28;20056;-79
2022/04/16 08:52:31;;;;;;;6.72;3.33;;;9.70;99.90;;;;;;4999060;28;20088;-80
2022/04/16 08:54:58;;;;;;;4.65;2.22;;;9.90;99.90;;;;;;5012954;28;20045;-81
2022/04/16 08:57:24;;;;;;;4.57;2.35;;;10.00;99.90;;;;;;5029840;28;20111;-80
2022/04/16 08:59:51;;;;;;;7.20;3.40;;;10.10;99.90;;;;;;5004861;28;20045;-80
2022/04/16 09:02:22;;;;;;;5.30;3.03;;;10.40;99.90;;;;;;5017042;28;20064;-82
2022/04/16 09:04:49;;;;;;;6.18;3.25;;;10.50;99.90;;;;;;5014684;28;20049;-80
2022/04/16 09:07:15;;;;;;;5.80;3.40;;;10.50;99.90;;;;;;5014848;28;20761;-82
2022/04/16 09:09:42;;;;;;;6.30;3.60;;;10.80;99.90;;;;;;5027635;28;20049;-80
2022/04/16 09:12:18;;;;;;;4.57;3.05;;;11.00;99.90;;;;;;5001847;28;20044;-81
2022/04/16 09:14:45;;;;;;;;;;;11.20;99.90;;;;;;5004480;28;20155;-81
2022/04/16 09:17:20;;;;;;;2.97;1.98;;;11.40;99.90;;;;;;4988409;28;19921;-81
2022/04/16 09:19:54;;;;;;;3.65;2.20;;;12.00;99.50;;;;;;5002194;28;20049;-80
2022/04/16 09:22:30;;;;;;;7.85;2.90;;;13.30;95.00;;;;;;5020971;28;20046;-81
2022/04/16 09:24:56;;;;;;;3.38;2.63;;;14.70;91.00;;;;;;5041256;28;20106;-82
2022/04/16 09:27:22;;;;;;;6.15;2.90;;;15.90;83.20;;;;;;5007002;28;20049;-83
2022/04/16 09:29:47;;;;;;;5.45;2.90;;;16.60;73.90;;;;;;4992988;28;20041;-81
2022/04/16 09:32:25;;;;;;;4.82;2.60;;;17.40;70.30;;;;;;5007247;28;20068;-81
2022/04/16 09:34:52;;;;;;;6.32;2.70;;;18.10;64.90;;;;;;5016994;28;20040;-82
2022/04/16 09:37:19;;;;;;;5.10;2.65;;;18.60;63.20;;;;;;5007996;28;20053;-81
2022/04/16 09:39:44;;;;;;;3.45;2.00;;;19.10;61.00;;;;;;5016408;28;20044;-82
2022/04/16 09:42:10;;;;;;;2.83;1.50;;;19.50;56.00;;;;;;5015626;28;20061;-83
2022/04/16 09:44:37;;;;;;;2.38;1.70;;;19.90;52.20;;;;;;5005774;28;20316;-83
2022/04/16 09:47:03;;;;;;;2.70;1.77;;;20.10;49.60;;;;;;5016755;28;20044;-83
2022/04/16 09:49:32;;;;;;;3.47;1.70;;;20.40;48.90;;;;;;5000186;28;20474;-81
2022/04/16 09:52:02;;;;;;;2.72;1.60;;;20.60;47.20;;;;;;4999697;28;20043;-82
2022/04/16 09:54:29;;;;;;;2.95;1.35;;;20.60;45.20;;;;;;5017437;28;20366;-82
2022/04/16 09:57:01;;;;;;;2.17;1.20;;;20.80;43.90;;;;;;5016048;28;20049;-83
2022/04/16 09:59:35;;;;;;;2.75;1.30;;;21.00;41.80;;;;;;5034156;28;20125;-81
2022/04/16 10:02:02;;;;;;;3.25;1.20;;;21.30;41.30;;;;;;5026372;28;20192;-82
2022/04/16 10:04:33;;;;;;;1.73;1.08;;;21.60;41.40;;;;;;5008623;28;20466;-83
2022/04/16 10:06:59;;;;;;;1.48;1.20;;;22.00;39.50;;;;;;5011224;28;20128;-81
2022/04/16 10:09:26;;;;;;;3.05;1.25;;;22.30;39.30;;;;;;5009155;28;20120;-83
2022/04/16 10:15:02;;;;;;;3.45;1.50;;;22.70;37.10;;;;;;5014780;28;20047;-81
2022/04/16 10:17:30;;;;;;;1.63;1.10;;;22.90;35.80;;;;;;5029558;28;20427;-82
2022/04/16 10:20:11;;;;;;;1.63;0.98;;;22.90;36.10;;;;;;5027034;28;20103;-82
2022/04/16 10:22:38;;;;;;;1.88;1.02;;;23.30;34.20;;;;;;5004640;28;20046;-82
2022/04/16 10:25:05;;;;;;;4.38;1.00;;;23.00;34.70;;;;;;5016589;28;20641;-82
2022/04/16 10:27:38;;;;;;;1.65;0.70;;;22.90;35.80;;;;;;4990029;28;20046;-85
2022/04/16 10:30:13;;;;;;;3.42;0.80;;;23.00;34.50;;;;;;5021684;28;20045;-83
2022/04/16 10:32:41;;;;;;;3.73;0.53;;;22.90;32.60;;;;;;5020104;28;20069;-82
2022/04/16 10:35:14;;;;;;;2.38;0.85;;;22.90;32.50;;;;;;5005522;28;20402;-83
2022/04/16 10:37:41;;;;;;;0.73;0.43;;;22.80;30.90;;;;;;5011643;28;20099;-82
2022/04/16 10:40:35;;;;;;;0.55;0.40;;;22.90;30.80;;;;;;5030424;28;20045;-82
2022/04/16 10:43:01;;;;;;;1.58;0.60;;;23.20;31.70;;;;;;5027634;28;20049;-82
2022/04/16 10:45:27;;;;;;;1.60;0.50;;;23.70;31.30;;;;;;5012274;28;20048;-83
2022/04/16 10:47:57;;;;;;;1.90;0.55;;;24.20;30.00;;;;;;5011471;28;20501;-83
2022/04/16 10:50:24;;;;;;;2.50;0.93;;;24.60;28.40;;;;;;5012039;28;20042;-83
2022/04/16 10:53:02;;;;;;;1.33;0.50;;;25.00;28.40;;;;;;5043358;28;20068;-83
2022/04/16 10:55:32;;;;;;;2.72;0.57;;;25.20;26.30;;;;;;4998688;28;20414;-82
2022/04/16 10:57:58;;;;;;;0.77;0.43;;;25.30;28.10;;;;;;5011248;28;20045;-84
2022/04/16 11:00:40;;;;;;;0.70;0.50;;;25.30;27.10;;;;;;5030356;28;20041;-82
2022/04/16 11:03:18;;;;;;;0.75;0.40;;;25.60;25.80;;;;;;5029367;28;20759;-83
2022/04/16 11:05:44;;;;;;;0.93;0.55;;;25.60;27.20;;;;;;5009859;28;20482;-83
2022/04/16 11:08:12;;;;;;;2.58;0.93;;;26.00;28.20;;;;;;5011252;28;20060;-83
2022/04/16 11:10:39;;;;;;;1.48;0.60;;;26.30;26.50;;;;;;5006844;28;20092;-84
2022/04/16 11:13:05;;;;;;;1.45;0.60;;;26.40;27.40;;;;;;5012173;28;20148;-83
2022/04/16 11:15:32;;;;;;;2.97;0.70;;;26.60;27.30;;;;;;5029733;28;20163;-83
2022/04/16 11:18:00;;;;;;;2.17;0.60;;;26.90;27.60;;;;;;5031588;28;20048;-82
2022/04/16 11:20:27;;;;;;;1.90;0.60;;;27.00;26.10;;;;;;5029751;28;20067;-82
2022/04/16 11:22:56;;;;;;;1.17;0.63;;;26.90;25.30;;;;;;5031538;28;20041;-83
2022/04/16 11:25:26;;;;;;;2.63;0.60;;;26.80;25.70;;;;;;5032079;28;20816;-83
2022/04/16 11:36:11;;;;;;;0.88;0.45;;;26.90;24.50;;;;;;5014837;28;20045;-80
2022/04/16 11:38:42;;;;;;;3.10;0.60;;;26.80;24.20;;;;;;4998439;28;20045;-82
2022/04/16 11:41:10;;;;;;;1.35;0.63;;;27.00;23.80;;;;;;5015317;28;20074;-81
2022/04/16 11:43:38;;;;;;;0.85;0.40;;;27.00;23.10;;;;;;5031506;28;20088;-81
2022/04/16 11:46:12;;;;;;;1.17;0.60;;;27.00;22.80;;;;;;5031991;28;20045;-82
2022/04/16 11:48:46;;;;;;;1.52;0.80;;;27.00;23.40;;;;;;5014215;28;20041;-83
2022/04/16 11:51:13;;;;;;;0.70;0.63;;;26.90;23.10;;;;;;5015278;28;20086;-81
2022/04/16 11:53:47;;;;;;;0.75;0.40;;;27.00;23.20;;;;;;4982676;28;20077;-85
2022/04/16 11:56:22;;;;;;;0.88;0.50;;;27.10;23.60;;;;;;5025967;28;20041;-81
2022/04/16 11:58:51;;;;;;;1.45;0.50;;;27.40;23.00;;;;;;5041558;28;20124;-81
2022/04/16 12:01:23;;;;;;;1.02;0.47;;;27.70;23.00;;;;;;4993122;28;20041;-83
2022/04/16 12:03:53;;;;;;;1.38;0.50;;;27.80;22.70;;;;;;4981221;28;20416;-79
2022/04/16 12:06:19;;;;;;;2.78;0.80;;;28.10;22.60;;;;;;5009766;28;20124;-80
2022/04/16 12:08:46;;;;;;;1.33;0.80;;;28.40;22.60;;;;;;5005449;28;20043;-82
2022/04/16 12:11:13;;;;;;;2.00;0.68;;;28.20;22.30;;;;;;5010189;28;20094;-82
2022/04/16 12:13:43;;;;;;;1.60;0.60;;;28.50;22.50;;;;;;5032572;28;20041;-81
2022/04/16 12:16:13;;;;;;;3.33;0.70;;;28.60;22.20;;;;;;5015957;28;20045;-83
2022/04/16 12:18:43;;;;;;;2.40;0.70;;;28.60;22.40;;;;;;5016243;28;20446;-82
2022/04/16 12:21:14;;;;;;;1.50;0.55;;;28.70;21.90;;;;;;4999949;28;20041;-82
2022/04/16 12:23:41;;;;;;;1.08;0.60;;;28.60;21.80;;;;;;5016006;28;20080;-84
2022/04/16 12:26:17;;;;;;;1.13;0.60;;;28.30;21.60;;;;;;5015688;28;20053;-82
2022/04/16 12:28:48;;;;;;;1.58;0.60;;;28.50;21.20;;;;;;5015604;28;20667;-85
2022/04/16 12:31:34;;;;;;;0.95;0.65;;;28.60;21.60;;;;;;5015792;28;20036;-81
2022/04/16 12:34:01;;;;;;;2.70;0.73;;;28.70;20.50;;;;;;5014862;28;20672;-82
2022/04/16 12:36:27;;;;;;;1.92;0.80;;;28.60;21.40;;;;;;4998811;28;20051;-82
2022/04/16 12:38:54;;;;;;;2.17;0.60;;;28.60;21.20;;;;;;5015424;28;20378;-82
2022/04/16 12:41:22;;;;;;;1.88;0.50;;;28.30;21.60;;;;;;4999440;28;20140;-81
2022/04/16 12:43:48;;;;;;;1.27;0.80;;;28.20;21.30;;;;;;4999548;28;20049;-82
2022/04/16 12:46:14;;;;;;;1.88;0.60;;;27.90;21.10;;;;;;5015414;28;20049;-82
2022/04/16 12:48:39;;;;;;;1.48;0.70;;;27.60;21.10;;;;;;5015792;28;20033;-81
2022/04/16 12:51:05;;;;;;;2.72;0.80;;;27.60;21.10;;;;;;4998395;28;20067;-82
2022/04/16 12:53:31;;;;;;;1.25;0.70;;;27.70;21.80;;;;;;4994504;28;20124;-82
2022/04/16 12:55:56;;;;;;;0.75;0.60;;;27.70;21.20;;;;;;5031326;28;20047;-82
2022/04/16 12:58:22;;;;;;;2.13;0.70;;;27.90;20.70;;;;;;4982905;28;20489;-80
2022/04/16 13:00:48;;;;;;;2.63;0.90;;;28.00;20.60;;;;;;5015006;28;20051;-82
2022/04/16 13:03:14;;;;;;;4.68;0.80;;;28.10;20.80;;;;;;4999062;28;20114;-81
2022/04/16 13:05:40;;;;;;;2.90;0.85;;;28.30;21.00;;;;;;5015707;28;20128;-82
2022/04/16 13:08:08;;;;;;;1.48;0.63;;;28.60;20.80;;;;;;5030834;28;20565;-83
2022/04/16 13:10:33;;;;;;;1.95;0.60;;;28.70;21.20;;;;;;5015061;28;20040;-82